sensor_id;sensor_type;location;lat;lon;timestamp;P1;durP1;ratioP1;P2;durP2;ratioP2
59338;SDS011;45117;50.960;5.500;2023-03-23T00:00:47;4.53;;;2.30;;
59338;SDS011;45117;50.960;5.500;2023-03-23T00:03:14;3.33;;;2.40;;
59338;SDS011;45117;50.960;5.500;2023-03-23T00:05:40;4.97;;;2.65;;
59338;SDS011;45117;50.960;5.500;2023-03-23T00:08:14;4.13;;;2.65;;
59338;SDS011;45117;50.960;5.500;2023-03-23T00:10:41;4.35;;;2.30;;
59338;SDS011;45117;50.960;5.500;2023-03-23T00:13:09;4.10;;;2.67;;
59338;SDS011;45117;50.960;5.500;2023-03-23T00:15:36;4.68;;;2.78;;
59338;SDS011;45117;50.960;5.500;2023-03-23T00:18:06;3.97;;;2.28;;
59338;SDS011;45117;50.960;5.500;2023-03-23T00:20:33;4.80;;;2.58;;
59338;SDS011;45117;50.960;5.500;2023-03-23T00:23:05;5.85;;;2.40;;
59338;SDS011;45117;50.960;5.500;2023-03-23T00:25:32;4.93;;;2.63;;
59338;SDS011;45117;50.960;5.500;2023-03-23T00:27:59;5.30;;;2.90;;
59338;SDS011;45117;50.960;5.500;2023-03-23T00:30:27;5.25;;;2.70;;
59338;SDS011;45117;50.960;5.500;2023-03-23T00:32:54;5.05;;;2.80;;
59338;SDS011;45117;50.960;5.500;2023-03-23T00:35:21;7.20;;;3.10;;
59338;SDS011;45117;50.960;5.500;2023-03-23T00:37:47;6.88;;;2.90;;
59338;SDS011;45117;50.960;5.500;2023-03-23T00:40:14;5.30;;;2.63;;
59338;SDS011;45117;50.960;5.500;2023-03-23T00:42:41;5.32;;;2.50;;
59338;SDS011;45117;50.960;5.500;2023-03-23T00:45:09;3.55;;;2.85;;
59338;SDS011;45117;50.960;5.500;2023-03-23T00:47:38;6.50;;;2.85;;
59338;SDS011;45117;50.960;5.500;2023-03-23T00:50:07;4.80;;;2.85;;
59338;SDS011;45117;50.960;5.500;2023-03-23T00:52:34;5.75;;;3.60;;
59338;SDS011;45117;50.960;5.500;2023-03-23T00:55:01;3.70;;;2.83;;
59338;SDS011;45117;50.960;5.500;2023-03-23T00:57:27;6.63;;;3.17;;
59338;SDS011;45117;50.960;5.500;2023-03-23T00:59:54;7.38;;;3.25;;
59338;SDS011;45117;50.960;5.500;2023-03-23T01:02:20;3.75;;;3.03;;
59338;SDS011;45117;50.960;5.500;2023-03-23T01:04:51;4.50;;;3.00;;
59338;SDS011;45117;50.960;5.500;2023-03-23T01:07:18;5.90;;;3.33;;
59338;SDS011;45117;50.960;5.500;2023-03-23T01:09:44;4.65;;;3.20;;
59338;SDS011;45117;50.960;5.500;2023-03-23T01:12:11;5.32;;;2.78;;
59338;SDS011;45117;50.960;5.500;2023-03-23T01:14:37;5.18;;;3.08;;
59338;SDS011;45117;50.960;5.500;2023-03-23T01:17:04;6.57;;;3.17;;
59338;SDS011;45117;50.960;5.500;2023-03-23T01:19:30;4.88;;;3.08;;
59338;SDS011;45117;50.960;5.500;2023-03-23T01:21:58;5.97;;;3.22;;
59338;SDS011;45117;50.960;5.500;2023-03-23T01:24:25;5.93;;;2.85;;
59338;SDS011;45117;50.960;5.500;2023-03-23T01:26:51;4.60;;;2.95;;
59338;SDS011;45117;50.960;5.500;2023-03-23T01:29:17;5.30;;;3.20;;
59338;SDS011;45117;50.960;5.500;2023-03-23T01:31:44;7.05;;;3.10;;
59338;SDS011;45117;50.960;5.500;2023-03-23T01:34:11;7.28;;;3.60;;
59338;SDS011;45117;50.960;5.500;2023-03-23T01:36:37;7.30;;;3.60;;
59338;SDS011;45117;50.960;5.500;2023-03-23T01:39:05;5.75;;;3.05;;
59338;SDS011;45117;50.960;5.500;2023-03-23T01:41:31;4.47;;;3.08;;
59338;SDS011;45117;50.960;5.500;2023-03-23T01:44:00;4.85;;;2.97;;
59338;SDS011;45117;50.960;5.500;2023-03-23T01:46:30;5.30;;;3.22;;
59338;SDS011;45117;50.960;5.500;2023-03-23T01:48:58;5.13;;;2.88;;
59338;SDS011;45117;50.960;5.500;2023-03-23T01:51:31;5.85;;;3.72;;
59338;SDS011;45117;50.960;5.500;2023-03-23T01:54:01;8.10;;;3.70;;
59338;SDS011;45117;50.960;5.500;2023-03-23T01:56:32;5.38;;;3.60;;
59338;SDS011;45117;50.960;5.500;2023-03-23T01:59:05;6.70;;;3.03;;
59338;SDS011;45117;50.960;5.500;2023-03-23T02:01:34;4.85;;;2.63;;
59338;SDS011;45117;50.960;5.500;2023-03-23T02:04:03;5.47;;;3.67;;
59338;SDS011;45117;50.960;5.500;2023-03-23T02:06:31;5.43;;;3.60;;
59338;SDS011;45117;50.960;5.500;2023-03-23T02:08:58;6.75;;;3.53;;
59338;SDS011;45117;50.960;5.500;2023-03-23T02:11:25;6.07;;;3.65;;
59338;SDS011;45117;50.960;5.500;2023-03-23T02:13:53;4.72;;;3.42;;
59338;SDS011;45117;50.960;5.500;2023-03-23T02:16:21;4.90;;;3.30;;
59338;SDS011;45117;50.960;5.500;2023-03-23T02:18:59;6.18;;;3.70;;
59338;SDS011;45117;50.960;5.500;2023-03-23T02:24:35;4.63;;;2.92;;
59338;SDS011;45117;50.960;5.500;2023-03-23T02:27:13;4.22;;;2.85;;
59338;SDS011;45117;50.960;5.500;2023-03-23T02:29:53;6.38;;;4.75;;
59338;SDS011;45117;50.960;5.500;2023-03-23T02:32:51;8.18;;;4.68;;
59338;SDS011;45117;50.960;5.500;2023-03-23T02:35:37;6.90;;;4.28;;
59338;SDS011;45117;50.960;5.500;2023-03-23T02:38:09;5.05;;;3.83;;
59338;SDS011;45117;50.960;5.500;2023-03-23T02:40:41;6.78;;;3.80;;
59338;SDS011;45117;50.960;5.500;2023-03-23T02:43:11;5.50;;;3.22;;
59338;SDS011;45117;50.960;5.500;2023-03-23T02:45:40;6.25;;;3.10;;
59338;SDS011;45117;50.960;5.500;2023-03-23T02:48:10;5.38;;;3.50;;
59338;SDS011;45117;50.960;5.500;2023-03-23T02:50:39;5.68;;;3.13;;
59338;SDS011;45117;50.960;5.500;2023-03-23T02:53:09;4.63;;;3.08;;
59338;SDS011;45117;50.960;5.500;2023-03-23T02:55:37;4.85;;;3.30;;
59338;SDS011;45117;50.960;5.500;2023-03-23T02:58:07;5.60;;;3.70;;
59338;SDS011;45117;50.960;5.500;2023-03-23T03:00:34;4.88;;;3.58;;
59338;SDS011;45117;50.960;5.500;2023-03-23T03:03:00;5.75;;;3.17;;
59338;SDS011;45117;50.960;5.500;2023-03-23T03:05:32;4.60;;;3.13;;
59338;SDS011;45117;50.960;5.500;2023-03-23T03:08:07;4.25;;;3.10;;
59338;SDS011;45117;50.960;5.500;2023-03-23T03:10:42;5.78;;;3.00;;
59338;SDS011;45117;50.960;5.500;2023-03-23T03:13:17;4.28;;;3.00;;
59338;SDS011;45117;50.960;5.500;2023-03-23T03:15:52;5.47;;;3.00;;
59338;SDS011;45117;50.960;5.500;2023-03-23T03:18:24;5.50;;;2.88;;
59338;SDS011;45117;50.960;5.500;2023-03-23T03:20:57;4.47;;;2.85;;
59338;SDS011;45117;50.960;5.500;2023-03-23T03:23:28;4.93;;;2.50;;
59338;SDS011;45117;50.960;5.500;2023-03-23T03:25:57;4.07;;;2.53;;
59338;SDS011;45117;50.960;5.500;2023-03-23T03:28:25;6.13;;;2.60;;
59338;SDS011;45117;50.960;5.500;2023-03-23T03:30:54;3.85;;;2.35;;
59338;SDS011;45117;50.960;5.500;2023-03-23T03:33:22;3.20;;;2.25;;
59338;SDS011;45117;50.960;5.500;2023-03-23T03:35:51;4.15;;;2.20;;
59338;SDS011;45117;50.960;5.500;2023-03-23T03:38:20;4.28;;;2.30;;
59338;SDS011;45117;50.960;5.500;2023-03-23T03:40:47;5.25;;;2.42;;
59338;SDS011;45117;50.960;5.500;2023-03-23T03:43:13;4.53;;;2.40;;
59338;SDS011;45117;50.960;5.500;2023-03-23T03:45:40;4.32;;;2.40;;
59338;SDS011;45117;50.960;5.500;2023-03-23T03:48:07;6.97;;;2.40;;
59338;SDS011;45117;50.960;5.500;2023-03-23T03:50:33;4.07;;;1.75;;
59338;SDS011;45117;50.960;5.500;2023-03-23T03:53:00;4.55;;;2.05;;
59338;SDS011;45117;50.960;5.500;2023-03-23T03:55:28;4.53;;;2.10;;
59338;SDS011;45117;50.960;5.500;2023-03-23T03:58:00;4.97;;;2.42;;
59338;SDS011;45117;50.960;5.500;2023-03-23T04:00:27;4.57;;;2.20;;
59338;SDS011;45117;50.960;5.500;2023-03-23T04:02:54;3.40;;;1.98;;
59338;SDS011;45117;50.960;5.500;2023-03-23T04:05:21;3.50;;;1.90;;
59338;SDS011;45117;50.960;5.500;2023-03-23T04:07:49;2.92;;;1.80;;
59338;SDS011;45117;50.960;5.500;2023-03-23T04:10:16;3.33;;;1.67;;
59338;SDS011;45117;50.960;5.500;2023-03-23T04:12:45;3.83;;;2.00;;
59338;SDS011;45117;50.960;5.500;2023-03-23T04:15:12;3.97;;;2.03;;
59338;SDS011;45117;50.960;5.500;2023-03-23T04:17:39;2.85;;;1.90;;
59338;SDS011;45117;50.960;5.500;2023-03-23T04:20:07;3.92;;;2.00;;
59338;SDS011;45117;50.960;5.500;2023-03-23T04:22:42;5.18;;;1.70;;
59338;SDS011;45117;50.960;5.500;2023-03-23T04:25:10;4.45;;;1.80;;
59338;SDS011;45117;50.960;5.500;2023-03-23T04:27:38;2.85;;;1.70;;
59338;SDS011;45117;50.960;5.500;2023-03-23T04:30:10;3.78;;;1.77;;
59338;SDS011;45117;50.960;5.500;2023-03-23T04:32:37;4.30;;;1.63;;
59338;SDS011;45117;50.960;5.500;2023-03-23T04:35:07;3.22;;;1.52;;
59338;SDS011;45117;50.960;5.500;2023-03-23T04:37:34;2.80;;;1.55;;
59338;SDS011;45117;50.960;5.500;2023-03-23T04:40:01;2.55;;;1.30;;
59338;SDS011;45117;50.960;5.500;2023-03-23T04:42:32;5.68;;;1.80;;
59338;SDS011;45117;50.960;5.500;2023-03-23T04:44:59;3.47;;;1.77;;
59338;SDS011;45117;50.960;5.500;2023-03-23T04:47:30;5.65;;;1.70;;
59338;SDS011;45117;50.960;5.500;2023-03-23T04:49:59;4.18;;;1.70;;
59338;SDS011;45117;50.960;5.500;2023-03-23T04:52:25;4.43;;;1.60;;
59338;SDS011;45117;50.960;5.500;2023-03-23T04:54:53;4.97;;;1.70;;
59338;SDS011;45117;50.960;5.500;2023-03-23T04:57:20;4.95;;;1.75;;
59338;SDS011;45117;50.960;5.500;2023-03-23T04:59:47;3.75;;;1.45;;
59338;SDS011;45117;50.960;5.500;2023-03-23T05:02:14;2.35;;;1.35;;
59338;SDS011;45117;50.960;5.500;2023-03-23T05:04:43;4.35;;;1.50;;
59338;SDS011;45117;50.960;5.500;2023-03-23T05:07:10;6.13;;;1.60;;
59338;SDS011;45117;50.960;5.500;2023-03-23T05:09:37;5.25;;;1.60;;
59338;SDS011;45117;50.960;5.500;2023-03-23T05:12:04;3.65;;;1.48;;
59338;SDS011;45117;50.960;5.500;2023-03-23T05:14:31;5.65;;;1.48;;
59338;SDS011;45117;50.960;5.500;2023-03-23T05:16:58;3.25;;;1.50;;
59338;SDS011;45117;50.960;5.500;2023-03-23T05:19:24;5.78;;;1.58;;
59338;SDS011;45117;50.960;5.500;2023-03-23T05:21:52;3.05;;;1.45;;
59338;SDS011;45117;50.960;5.500;2023-03-23T05:24:19;5.45;;;1.45;;
59338;SDS011;45117;50.960;5.500;2023-03-23T05:26:45;5.78;;;2.15;;
59338;SDS011;45117;50.960;5.500;2023-03-23T05:29:13;5.40;;;1.48;;
59338;SDS011;45117;50.960;5.500;2023-03-23T05:31:40;4.63;;;1.10;;
59338;SDS011;45117;50.960;5.500;2023-03-23T05:34:07;5.90;;;1.38;;
59338;SDS011;45117;50.960;5.500;2023-03-23T05:36:34;5.50;;;1.50;;
59338;SDS011;45117;50.960;5.500;2023-03-23T05:39:03;4.25;;;0.98;;
59338;SDS011;45117;50.960;5.500;2023-03-23T05:41:30;5.85;;;1.40;;
59338;SDS011;45117;50.960;5.500;2023-03-23T05:43:56;5.45;;;1.50;;
59338;SDS011;45117;50.960;5.500;2023-03-23T05:46:23;5.88;;;1.67;;
59338;SDS011;45117;50.960;5.500;2023-03-23T05:48:49;4.07;;;1.30;;
59338;SDS011;45117;50.960;5.500;2023-03-23T05:51:16;5.13;;;1.35;;
59338;SDS011;45117;50.960;5.500;2023-03-23T05:53:43;5.25;;;1.25;;
59338;SDS011;45117;50.960;5.500;2023-03-23T05:56:12;3.28;;;1.30;;
59338;SDS011;45117;50.960;5.500;2023-03-23T05:58:39;4.90;;;1.65;;
59338;SDS011;45117;50.960;5.500;2023-03-23T06:01:05;4.82;;;1.50;;
59338;SDS011;45117;50.960;5.500;2023-03-23T06:03:32;8.50;;;1.48;;
59338;SDS011;45117;50.960;5.500;2023-03-23T06:06:00;4.60;;;1.27;;
59338;SDS011;45117;50.960;5.500;2023-03-23T06:08:27;3.03;;;1.25;;
59338;SDS011;45117;50.960;5.500;2023-03-23T06:10:54;2.95;;;1.30;;
59338;SDS011;45117;50.960;5.500;2023-03-23T06:13:22;3.15;;;1.27;;
59338;SDS011;45117;50.960;5.500;2023-03-23T06:15:49;3.20;;;1.48;;
59338;SDS011;45117;50.960;5.500;2023-03-23T06:18:15;3.03;;;1.20;;
59338;SDS011;45117;50.960;5.500;2023-03-23T06:20:42;6.97;;;1.60;;
59338;SDS011;45117;50.960;5.500;2023-03-23T06:23:09;4.90;;;1.58;;
59338;SDS011;45117;50.960;5.500;2023-03-23T06:25:35;6.22;;;1.60;;
59338;SDS011;45117;50.960;5.500;2023-03-23T06:28:02;11.00;;;2.40;;
59338;SDS011;45117;50.960;5.500;2023-03-23T06:30:30;2.80;;;1.10;;
59338;SDS011;45117;50.960;5.500;2023-03-23T06:32:57;2.22;;;1.27;;
59338;SDS011;45117;50.960;5.500;2023-03-23T06:35:24;4.15;;;1.58;;
59338;SDS011;45117;50.960;5.500;2023-03-23T06:37:50;3.80;;;1.40;;
59338;SDS011;45117;50.960;5.500;2023-03-23T06:40:18;3.67;;;1.38;;
59338;SDS011;45117;50.960;5.500;2023-03-23T06:42:46;2.80;;;0.95;;
59338;SDS011;45117;50.960;5.500;2023-03-23T06:45:12;2.67;;;1.10;;
59338;SDS011;45117;50.960;5.500;2023-03-23T06:47:40;6.07;;;1.40;;
59338;SDS011;45117;50.960;5.500;2023-03-23T06:50:07;6.18;;;1.60;;
59338;SDS011;45117;50.960;5.500;2023-03-23T06:52:34;4.00;;;1.13;;
59338;SDS011;45117;50.960;5.500;2023-03-23T06:55:01;4.15;;;1.13;;
59338;SDS011;45117;50.960;5.500;2023-03-23T06:57:27;3.72;;;1.50;;
59338;SDS011;45117;50.960;5.500;2023-03-23T06:59:54;6.78;;;1.48;;
59338;SDS011;45117;50.960;5.500;2023-03-23T07:02:20;5.57;;;1.00;;
59338;SDS011;45117;50.960;5.500;2023-03-23T07:04:48;6.88;;;1.67;;
59338;SDS011;45117;50.960;5.500;2023-03-23T07:07:15;4.70;;;1.35;;
59338;SDS011;45117;50.960;5.500;2023-03-23T07:09:43;7.78;;;1.45;;
59338;SDS011;45117;50.960;5.500;2023-03-23T07:12:10;5.82;;;1.38;;
59338;SDS011;45117;50.960;5.500;2023-03-23T07:14:36;4.20;;;1.40;;
59338;SDS011;45117;50.960;5.500;2023-03-23T07:17:03;5.05;;;1.40;;
59338;SDS011;45117;50.960;5.500;2023-03-23T07:19:30;4.57;;;1.40;;
59338;SDS011;45117;50.960;5.500;2023-03-23T07:21:58;9.00;;;1.42;;
59338;SDS011;45117;50.960;5.500;2023-03-23T07:24:25;6.25;;;1.58;;
59338;SDS011;45117;50.960;5.500;2023-03-23T07:26:52;4.95;;;1.40;;
59338;SDS011;45117;50.960;5.500;2023-03-23T07:29:19;4.63;;;1.20;;
59338;SDS011;45117;50.960;5.500;2023-03-23T07:31:45;6.03;;;1.38;;
59338;SDS011;45117;50.960;5.500;2023-03-23T07:34:12;6.53;;;1.38;;
59338;SDS011;45117;50.960;5.500;2023-03-23T07:36:38;5.30;;;1.38;;
59338;SDS011;45117;50.960;5.500;2023-03-23T07:39:06;6.65;;;1.52;;
59338;SDS011;45117;50.960;5.500;2023-03-23T07:41:32;4.40;;;1.38;;
59338;SDS011;45117;50.960;5.500;2023-03-23T07:44:00;3.17;;;1.10;;
59338;SDS011;45117;50.960;5.500;2023-03-23T07:46:27;5.35;;;1.40;;
59338;SDS011;45117;50.960;5.500;2023-03-23T07:48:53;5.05;;;1.00;;
59338;SDS011;45117;50.960;5.500;2023-03-23T07:51:21;4.72;;;1.20;;
59338;SDS011;45117;50.960;5.500;2023-03-23T07:53:48;2.60;;;1.27;;
59338;SDS011;45117;50.960;5.500;2023-03-23T07:56:16;5.55;;;1.30;;
59338;SDS011;45117;50.960;5.500;2023-03-23T07:58:44;4.82;;;1.35;;
59338;SDS011;45117;50.960;5.500;2023-03-23T08:01:11;4.95;;;1.02;;
59338;SDS011;45117;50.960;5.500;2023-03-23T08:03:37;6.10;;;1.30;;
59338;SDS011;45117;50.960;5.500;2023-03-23T08:06:04;4.85;;;1.23;;
59338;SDS011;45117;50.960;5.500;2023-03-23T08:08:31;5.18;;;1.30;;
59338;SDS011;45117;50.960;5.500;2023-03-23T08:10:58;4.13;;;1.20;;
59338;SDS011;45117;50.960;5.500;2023-03-23T08:13:26;7.53;;;1.40;;
59338;SDS011;45117;50.960;5.500;2023-03-23T08:15:53;7.57;;;1.48;;
59338;SDS011;45117;50.960;5.500;2023-03-23T08:18:19;4.82;;;1.10;;
59338;SDS011;45117;50.960;5.500;2023-03-23T08:20:46;2.35;;;1.10;;
59338;SDS011;45117;50.960;5.500;2023-03-23T08:23:13;2.65;;;1.25;;
59338;SDS011;45117;50.960;5.500;2023-03-23T08:25:41;3.38;;;1.00;;
59338;SDS011;45117;50.960;5.500;2023-03-23T08:28:08;4.35;;;1.30;;
59338;SDS011;45117;50.960;5.500;2023-03-23T08:30:37;5.05;;;1.40;;
59338;SDS011;45117;50.960;5.500;2023-03-23T08:33:05;8.35;;;1.70;;
59338;SDS011;45117;50.960;5.500;2023-03-23T08:35:31;3.60;;;1.30;;
59338;SDS011;45117;50.960;5.500;2023-03-23T08:37:59;3.60;;;1.25;;
59338;SDS011;45117;50.960;5.500;2023-03-23T08:40:26;3.80;;;0.98;;
59338;SDS011;45117;50.960;5.500;2023-03-23T08:42:53;6.68;;;1.35;;
59338;SDS011;45117;50.960;5.500;2023-03-23T08:45:22;8.88;;;1.77;;
59338;SDS011;45117;50.960;5.500;2023-03-23T08:47:51;4.25;;;1.35;;
59338;SDS011;45117;50.960;5.500;2023-03-23T08:50:21;6.18;;;1.60;;
59338;SDS011;45117;50.960;5.500;2023-03-23T08:52:49;3.83;;;0.95;;
59338;SDS011;45117;50.960;5.500;2023-03-23T08:55:16;2.05;;;0.60;;
59338;SDS011;45117;50.960;5.500;2023-03-23T08:57:43;1.90;;;0.93;;
59338;SDS011;45117;50.960;5.500;2023-03-23T09:00:11;4.13;;;0.77;;
59338;SDS011;45117;50.960;5.500;2023-03-23T09:02:43;3.40;;;0.75;;
59338;SDS011;45117;50.960;5.500;2023-03-23T09:05:13;2.35;;;0.80;;
59338;SDS011;45117;50.960;5.500;2023-03-23T09:07:41;1.08;;;0.63;;
59338;SDS011;45117;50.960;5.500;2023-03-23T09:10:11;4.30;;;0.77;;
59338;SDS011;45117;50.960;5.500;2023-03-23T09:12:38;2.25;;;0.80;;
59338;SDS011;45117;50.960;5.500;2023-03-23T09:15:06;3.83;;;0.80;;
59338;SDS011;45117;50.960;5.500;2023-03-23T09:17:34;2.15;;;0.70;;
59338;SDS011;45117;50.960;5.500;2023-03-23T09:20:03;1.85;;;0.88;;
59338;SDS011;45117;50.960;5.500;2023-03-23T09:22:35;2.17;;;0.95;;
59338;SDS011;45117;50.960;5.500;2023-03-23T09:25:03;3.92;;;1.00;;
59338;SDS011;45117;50.960;5.500;2023-03-23T09:27:30;3.25;;;1.00;;
59338;SDS011;45117;50.960;5.500;2023-03-23T09:29:57;4.75;;;1.80;;
59338;SDS011;45117;50.960;5.500;2023-03-23T09:32:23;4.47;;;1.55;;
59338;SDS011;45117;50.960;5.500;2023-03-23T09:34:50;3.00;;;1.08;;
59338;SDS011;45117;50.960;5.500;2023-03-23T09:37:20;1.50;;;1.00;;
59338;SDS011;45117;50.960;5.500;2023-03-23T09:39:48;4.03;;;1.40;;
59338;SDS011;45117;50.960;5.500;2023-03-23T09:42:21;2.28;;;0.95;;
59338;SDS011;45117;50.960;5.500;2023-03-23T09:44:58;3.70;;;0.77;;
59338;SDS011;45117;50.960;5.500;2023-03-23T09:47:35;2.97;;;1.20;;
59338;SDS011;45117;50.960;5.500;2023-03-23T09:50:09;2.50;;;0.95;;
59338;SDS011;45117;50.960;5.500;2023-03-23T09:52:39;3.47;;;0.90;;
59338;SDS011;45117;50.960;5.500;2023-03-23T09:55:10;2.47;;;0.95;;
59338;SDS011;45117;50.960;5.500;2023-03-23T09:57:42;3.95;;;1.10;;
59338;SDS011;45117;50.960;5.500;2023-03-23T10:00:14;4.78;;;1.30;;
59338;SDS011;45117;50.960;5.500;2023-03-23T10:02:46;3.05;;;1.33;;
59338;SDS011;45117;50.960;5.500;2023-03-23T10:05:23;3.42;;;1.30;;
59338;SDS011;45117;50.960;5.500;2023-03-23T10:07:55;4.07;;;1.90;;
59338;SDS011;45117;50.960;5.500;2023-03-23T10:10:24;3.47;;;1.50;;
59338;SDS011;45117;50.960;5.500;2023-03-23T10:12:59;3.95;;;1.70;;
59338;SDS011;45117;50.960;5.500;2023-03-23T10:15:31;3.88;;;1.60;;
59338;SDS011;45117;50.960;5.500;2023-03-23T10:18:02;3.13;;;1.52;;
59338;SDS011;45117;50.960;5.500;2023-03-23T10:20:37;4.65;;;1.58;;
59338;SDS011;45117;50.960;5.500;2023-03-23T10:23:13;3.75;;;1.30;;
59338;SDS011;45117;50.960;5.500;2023-03-23T10:25:52;2.58;;;1.05;;
59338;SDS011;45117;50.960;5.500;2023-03-23T10:28:23;2.90;;;1.00;;
59338;SDS011;45117;50.960;5.500;2023-03-23T10:31:01;3.58;;;1.20;;
59338;SDS011;45117;50.960;5.500;2023-03-23T10:33:30;1.80;;;0.90;;
59338;SDS011;45117;50.960;5.500;2023-03-23T10:36:03;3.38;;;1.30;;
59338;SDS011;45117;50.960;5.500;2023-03-23T10:38:35;2.08;;;1.10;;
59338;SDS011;45117;50.960;5.500;2023-03-23T10:41:06;2.90;;;1.30;;
59338;SDS011;45117;50.960;5.500;2023-03-23T10:43:37;3.15;;;1.50;;
59338;SDS011;45117;50.960;5.500;2023-03-23T10:46:05;3.45;;;1.40;;
59338;SDS011;45117;50.960;5.500;2023-03-23T10:48:43;2.90;;;1.65;;
59338;SDS011;45117;50.960;5.500;2023-03-23T10:51:13;3.25;;;1.48;;
59338;SDS011;45117;50.960;5.500;2023-03-23T10:53:44;2.45;;;1.45;;
59338;SDS011;45117;50.960;5.500;2023-03-23T10:56:24;4.13;;;1.40;;
59338;SDS011;45117;50.960;5.500;2023-03-23T10:58:52;3.55;;;1.25;;
59338;SDS011;45117;50.960;5.500;2023-03-23T11:01:20;3.30;;;1.50;;
59338;SDS011;45117;50.960;5.500;2023-03-23T11:03:56;3.28;;;1.60;;
59338;SDS011;45117;50.960;5.500;2023-03-23T11:06:23;5.35;;;1.67;;
59338;SDS011;45117;50.960;5.500;2023-03-23T11:08:51;2.58;;;1.40;;
59338;SDS011;45117;50.960;5.500;2023-03-23T11:11:21;2.17;;;1.25;;
59338;SDS011;45117;50.960;5.500;2023-03-23T11:13:56;2.78;;;1.27;;
59338;SDS011;45117;50.960;5.500;2023-03-23T11:16:24;4.22;;;1.40;;
59338;SDS011;45117;50.960;5.500;2023-03-23T11:18:52;2.95;;;1.33;;
59338;SDS011;45117;50.960;5.500;2023-03-23T11:21:20;3.03;;;1.20;;
59338;SDS011;45117;50.960;5.500;2023-03-23T11:23:49;2.00;;;1.25;;
59338;SDS011;45117;50.960;5.500;2023-03-23T11:26:18;4.38;;;1.20;;
59338;SDS011;45117;50.960;5.500;2023-03-23T11:28:51;3.05;;;1.50;;
59338;SDS011;45117;50.960;5.500;2023-03-23T11:31:20;3.78;;;1.50;;
59338;SDS011;45117;50.960;5.500;2023-03-23T11:33:51;3.00;;;1.30;;
59338;SDS011;45117;50.960;5.500;2023-03-23T11:36:21;2.97;;;1.20;;
59338;SDS011;45117;50.960;5.500;2023-03-23T11:38:55;3.80;;;1.20;;
59338;SDS011;45117;50.960;5.500;2023-03-23T11:41:22;4.97;;;1.40;;
59338;SDS011;45117;50.960;5.500;2023-03-23T11:43:52;3.10;;;1.20;;
59338;SDS011;45117;50.960;5.500;2023-03-23T11:46:22;2.53;;;1.58;;
59338;SDS011;45117;50.960;5.500;2023-03-23T11:48:59;3.72;;;1.60;;
59338;SDS011;45117;50.960;5.500;2023-03-23T11:54:50;3.85;;;1.73;;
59338;SDS011;45117;50.960;5.500;2023-03-23T11:57:22;3.42;;;1.33;;
59338;SDS011;45117;50.960;5.500;2023-03-23T11:59:50;3.70;;;1.85;;
59338;SDS011;45117;50.960;5.500;2023-03-23T12:05:18;3.20;;;1.70;;
59338;SDS011;45117;50.960;5.500;2023-03-23T12:07:56;3.17;;;1.80;;
59338;SDS011;45117;50.960;5.500;2023-03-23T12:10:35;3.42;;;1.90;;
59338;SDS011;45117;50.960;5.500;2023-03-23T12:13:18;2.63;;;1.80;;
59338;SDS011;45117;50.960;5.500;2023-03-23T12:15:56;4.38;;;2.10;;
59338;SDS011;45117;50.960;5.500;2023-03-23T12:18:40;3.17;;;2.20;;
59338;SDS011;45117;50.960;5.500;2023-03-23T12:21:15;3.63;;;2.00;;
59338;SDS011;45117;50.960;5.500;2023-03-23T12:23:54;3.13;;;1.95;;
59338;SDS011;45117;50.960;5.500;2023-03-23T12:26:25;2.58;;;1.88;;
59338;SDS011;45117;50.960;5.500;2023-03-23T12:29:18;5.28;;;2.15;;
59338;SDS011;45117;50.960;5.500;2023-03-23T12:31:56;5.03;;;3.10;;
59338;SDS011;45117;50.960;5.500;2023-03-23T12:34:36;6.97;;;3.25;;
59338;SDS011;45117;50.960;5.500;2023-03-23T12:37:16;5.05;;;2.42;;
59338;SDS011;45117;50.960;5.500;2023-03-23T12:40:03;5.93;;;3.25;;
59338;SDS011;45117;50.960;5.500;2023-03-23T12:42:38;5.05;;;2.78;;
59338;SDS011;45117;50.960;5.500;2023-03-23T12:45:16;4.85;;;3.05;;
59338;SDS011;45117;50.960;5.500;2023-03-23T12:47:49;6.95;;;3.03;;
59338;SDS011;45117;50.960;5.500;2023-03-23T12:50:23;4.60;;;2.50;;
59338;SDS011;45117;50.960;5.500;2023-03-23T12:52:55;6.55;;;3.05;;
59338;SDS011;45117;50.960;5.500;2023-03-23T12:55:30;5.00;;;1.80;;
59338;SDS011;45117;50.960;5.500;2023-03-23T12:58:01;4.88;;;1.90;;
59338;SDS011;45117;50.960;5.500;2023-03-23T13:00:33;3.40;;;1.67;;
59338;SDS011;45117;50.960;5.500;2023-03-23T13:03:07;3.35;;;1.60;;
59338;SDS011;45117;50.960;5.500;2023-03-23T13:05:38;4.07;;;1.65;;
59338;SDS011;45117;50.960;5.500;2023-03-23T13:08:11;4.35;;;1.55;;
59338;SDS011;45117;50.960;5.500;2023-03-23T13:10:42;6.03;;;1.55;;
59338;SDS011;45117;50.960;5.500;2023-03-23T13:13:13;4.03;;;1.48;;
59338;SDS011;45117;50.960;5.500;2023-03-23T13:15:46;7.50;;;1.52;;
59338;SDS011;45117;50.960;5.500;2023-03-23T13:18:24;3.60;;;1.50;;
59338;SDS011;45117;50.960;5.500;2023-03-23T13:21:01;3.75;;;1.10;;
59338;SDS011;45117;50.960;5.500;2023-03-23T13:23:40;4.55;;;1.45;;
59338;SDS011;45117;50.960;5.500;2023-03-23T13:26:09;6.88;;;1.73;;
59338;SDS011;45117;50.960;5.500;2023-03-23T13:28:48;5.68;;;1.40;;
59338;SDS011;45117;50.960;5.500;2023-03-23T13:31:22;5.00;;;1.50;;
59338;SDS011;45117;50.960;5.500;2023-03-23T13:33:58;5.32;;;1.58;;
59338;SDS011;45117;50.960;5.500;2023-03-23T13:36:31;5.32;;;1.88;;
59338;SDS011;45117;50.960;5.500;2023-03-23T13:39:02;4.80;;;1.40;;
59338;SDS011;45117;50.960;5.500;2023-03-23T13:41:32;4.85;;;1.63;;
59338;SDS011;45117;50.960;5.500;2023-03-23T13:44:14;5.43;;;1.60;;
59338;SDS011;45117;50.960;5.500;2023-03-23T13:46:53;4.68;;;1.63;;
59338;SDS011;45117;50.960;5.500;2023-03-23T13:49:22;8.02;;;2.00;;
59338;SDS011;45117;50.960;5.500;2023-03-23T13:52:00;5.93;;;2.17;;
59338;SDS011;45117;50.960;5.500;2023-03-23T13:54:40;5.47;;;2.60;;
59338;SDS011;45117;50.960;5.500;2023-03-23T13:57:25;4.47;;;2.15;;
59338;SDS011;45117;50.960;5.500;2023-03-23T14:00:10;6.80;;;2.05;;
59338;SDS011;45117;50.960;5.500;2023-03-23T14:02:51;8.45;;;2.35;;
59338;SDS011;45117;50.960;5.500;2023-03-23T14:05:37;9.48;;;2.92;;
59338;SDS011;45117;50.960;5.500;2023-03-23T14:08:10;5.28;;;2.40;;
59338;SDS011;45117;50.960;5.500;2023-03-23T14:10:40;5.45;;;2.42;;
59338;SDS011;45117;50.960;5.500;2023-03-23T14:13:13;7.82;;;2.45;;
59338;SDS011;45117;50.960;5.500;2023-03-23T14:15:44;9.82;;;2.50;;
59338;SDS011;45117;50.960;5.500;2023-03-23T14:18:20;10.43;;;2.88;;
59338;SDS011;45117;50.960;5.500;2023-03-23T14:20:49;7.55;;;2.70;;
59338;SDS011;45117;50.960;5.500;2023-03-23T14:23:17;9.50;;;2.88;;
59338;SDS011;45117;50.960;5.500;2023-03-23T14:25:45;7.22;;;2.58;;
59338;SDS011;45117;50.960;5.500;2023-03-23T14:28:21;8.68;;;2.97;;
59338;SDS011;45117;50.960;5.500;2023-03-23T14:30:48;9.38;;;2.97;;
59338;SDS011;45117;50.960;5.500;2023-03-23T14:33:18;7.78;;;3.08;;
59338;SDS011;45117;50.960;5.500;2023-03-23T14:35:46;9.73;;;2.83;;
59338;SDS011;45117;50.960;5.500;2023-03-23T14:38:15;10.63;;;2.90;;
59338;SDS011;45117;50.960;5.500;2023-03-23T14:40:44;5.30;;;2.08;;
59338;SDS011;45117;50.960;5.500;2023-03-23T14:43:13;9.40;;;2.30;;
59338;SDS011;45117;50.960;5.500;2023-03-23T14:45:42;7.47;;;2.38;;
59338;SDS011;45117;50.960;5.500;2023-03-23T14:48:10;7.07;;;2.10;;
59338;SDS011;45117;50.960;5.500;2023-03-23T14:50:41;5.70;;;2.03;;
59338;SDS011;45117;50.960;5.500;2023-03-23T14:53:12;9.88;;;2.20;;
59338;SDS011;45117;50.960;5.500;2023-03-23T14:55:45;4.75;;;1.52;;
59338;SDS011;45117;50.960;5.500;2023-03-23T14:58:14;4.05;;;1.73;;
59338;SDS011;45117;50.960;5.500;2023-03-23T15:00:44;7.07;;;1.80;;
59338;SDS011;45117;50.960;5.500;2023-03-23T15:03:15;4.65;;;1.80;;
59338;SDS011;45117;50.960;5.500;2023-03-23T15:05:43;5.68;;;1.80;;
59338;SDS011;45117;50.960;5.500;2023-03-23T15:08:14;5.32;;;1.75;;
59338;SDS011;45117;50.960;5.500;2023-03-23T15:10:52;4.45;;;1.60;;
59338;SDS011;45117;50.960;5.500;2023-03-23T15:13:20;6.40;;;1.60;;